createdAt,value
2022-12-03T00:00:12.394Z,69.15
2022-12-03T00:02:40.649Z,69.24
2022-12-03T00:05:09.329Z,69.17
2022-12-03T00:07:36.898Z,69.11
2022-12-03T00:10:05.538Z,69.46
2022-12-03T00:12:32.994Z,68.97
2022-12-03T00:15:00.414Z,69.37
2022-12-03T00:17:29.274Z,69.15
2022-12-03T00:19:56.780Z,69.20
2022-12-03T00:22:24.197Z,69.42
2022-12-03T00:24:52.158Z,69.26
2022-12-03T00:27:19.793Z,69.05
2022-12-03T00:29:47.214Z,69.10
2022-12-03T00:32:14.924Z,69.34
2022-12-03T00:34:43.736Z,69.11
2022-12-03T00:37:11.194Z,68.92
2022-12-03T00:39:38.659Z,69.16
2022-12-03T00:42:06.544Z,68.97
2022-12-03T00:44:34.027Z,69.11
2022-12-03T00:47:01.551Z,69.03
2022-12-03T00:49:29.029Z,69.29
2022-12-03T00:51:57.813Z,69.13
2022-12-03T00:54:30.225Z,69.27
2022-12-03T00:56:59.570Z,68.94
2022-12-03T00:59:27.015Z,69.08
2022-12-03T01:01:54.506Z,68.96
2022-12-03T01:04:22.016Z,68.93
2022-12-03T01:06:49.525Z,68.96
2022-12-03T01:09:18.320Z,69.15
2022-12-03T01:11:45.794Z,68.97
2022-12-03T01:14:15.123Z,68.88
2022-12-03T01:16:42.826Z,69.21
2022-12-03T01:19:15.742Z,68.88
2022-12-03T01:21:44.145Z,68.95
2022-12-03T01:24:12.092Z,69.03
2022-12-03T01:26:41.287Z,68.99
2022-12-03T01:29:09.001Z,68.93
2022-12-03T01:31:54.115Z,68.99
2022-12-03T01:34:21.622Z,68.97
2022-12-03T01:36:49.176Z,68.95
2022-12-03T01:39:16.612Z,68.54
2022-12-03T01:41:45.954Z,69.15
2022-12-03T01:44:17.997Z,69.01
2022-12-03T01:46:47.020Z,69.02
2022-12-03T01:49:17.743Z,68.90
2022-12-03T01:51:45.700Z,68.98
2022-12-03T01:54:17.962Z,68.75
2022-12-03T01:56:47.778Z,68.87
2022-12-03T01:59:17.686Z,68.85
2022-12-03T02:01:45.334Z,68.88
2022-12-03T02:04:14.930Z,68.82
2022-12-03T02:06:42.860Z,68.98
2022-12-03T02:09:12.027Z,68.95
2022-12-03T02:11:41.799Z,69.00
2022-12-03T02:14:13.166Z,69.26
2022-12-03T02:16:42.731Z,68.59
2022-12-03T02:19:19.865Z,68.78
2022-12-03T02:21:57.015Z,68.99
2022-12-03T02:24:34.304Z,68.70
2022-12-03T02:27:03.524Z,68.96
2022-12-03T02:29:31.257Z,69.00
2022-12-03T02:31:58.928Z,68.83
2022-12-03T02:34:37.606Z,68.58
2022-12-03T02:37:07.134Z,68.91
2022-12-03T02:39:38.364Z,68.72
2022-12-03T02:42:25.874Z,68.76
2022-12-03T02:44:54.306Z,68.67
2022-12-03T02:47:23.251Z,68.61
2022-12-03T02:49:51.630Z,68.81
2022-12-03T02:52:19.455Z,68.63
2022-12-03T02:54:47.151Z,68.69
2022-12-03T02:57:16.213Z,68.58
2022-12-03T02:59:45.257Z,68.51
2022-12-03T03:02:13.455Z,68.57
2022-12-03T03:04:42.071Z,68.67
2022-12-03T03:07:10.326Z,68.86
2022-12-03T03:09:37.941Z,68.78
2022-12-03T03:12:05.915Z,68.56
2022-12-03T03:14:34.714Z,68.79
2022-12-03T03:17:02.186Z,68.57
2022-12-03T03:19:30.460Z,68.87
2022-12-03T03:21:58.000Z,68.52
2022-12-03T03:24:26.315Z,68.72
2022-12-03T03:26:54.085Z,68.68
2022-12-03T03:29:21.770Z,69.23
2022-12-03T03:31:50.878Z,68.68
2022-12-03T03:34:18.706Z,68.57
2022-12-03T03:36:46.916Z,68.63
2022-12-03T03:39:14.792Z,68.57
2022-12-03T03:41:45.204Z,68.83
2022-12-03T03:44:13.197Z,68.76
2022-12-03T03:46:43.574Z,68.54
2022-12-03T03:49:13.377Z,68.68
2022-12-03T03:51:40.933Z,68.65
2022-12-03T03:54:09.329Z,68.50
2022-12-03T03:56:36.892Z,68.62
2022-12-03T03:59:04.905Z,68.56
2022-12-03T04:01:33.001Z,68.45
2022-12-03T04:04:01.130Z,68.58
2022-12-03T04:06:30.003Z,68.68
2022-12-03T04:08:57.451Z,68.55
2022-12-03T04:11:42.586Z,68.50
2022-12-03T04:14:10.071Z,68.61
2022-12-03T04:16:37.664Z,68.67
2022-12-03T04:19:05.511Z,68.65
2022-12-03T04:21:51.943Z,68.65
2022-12-03T04:24:19.759Z,68.81
2022-12-03T04:27:16.811Z,68.77
2022-12-03T04:29:44.342Z,68.84
2022-12-03T04:32:29.257Z,68.68
2022-12-03T04:35:14.378Z,68.91
2022-12-03T04:37:44.050Z,68.92
2022-12-03T04:40:26.064Z,68.94
2022-12-03T04:42:53.549Z,68.78
2022-12-03T04:45:21.023Z,69.11
2022-12-03T04:47:48.582Z,68.82
2022-12-03T04:50:16.176Z,69.60
2022-12-03T04:52:45.000Z,69.27
2022-12-03T04:55:12.480Z,69.13
2022-12-03T04:57:39.950Z,69.13
2022-12-03T05:00:08.854Z,69.37
2022-12-03T05:02:36.380Z,69.02
2022-12-03T05:05:04.001Z,69.22
2022-12-03T05:07:31.582Z,69.29
2022-12-03T05:10:00.458Z,69.47
2022-12-03T05:12:28.110Z,69.31
2022-12-03T05:14:56.190Z,69.58
2022-12-03T05:17:23.936Z,69.49
2022-12-03T05:20:09.337Z,69.45
2022-12-03T05:22:36.851Z,69.34
2022-12-03T05:25:06.608Z,69.35
2022-12-03T05:27:34.451Z,69.46
2022-12-03T05:30:01.964Z,69.35
2022-12-03T05:32:29.843Z,69.82
2022-12-03T05:34:57.762Z,69.66
2022-12-03T05:37:25.320Z,69.72
2022-12-03T05:39:52.985Z,69.73
2022-12-03T05:42:35.825Z,69.80
2022-12-03T05:45:03.318Z,69.41
2022-12-03T05:47:30.980Z,69.74
2022-12-03T05:49:58.535Z,69.98
2022-12-03T05:52:26.092Z,69.98
2022-12-03T05:54:53.812Z,70.09
2022-12-03T05:57:23.005Z,70.17
2022-12-03T05:59:50.759Z,69.95
2022-12-03T06:02:18.521Z,70.10
2022-12-03T06:04:46.182Z,70.36
2022-12-03T06:07:14.444Z,70.02
2022-12-03T06:09:42.236Z,70.46
2022-12-03T06:12:09.820Z,70.24
2022-12-03T06:14:39.093Z,70.61
2022-12-03T06:17:06.582Z,70.75
2022-12-03T06:19:34.055Z,70.84
2022-12-03T06:22:01.638Z,70.65
2022-12-03T06:24:29.603Z,71.03
2022-12-03T06:26:57.397Z,70.79
2022-12-03T06:29:24.910Z,70.91
2022-12-03T06:31:53.787Z,70.92
2022-12-03T06:34:21.302Z,70.82
2022-12-03T06:36:50.043Z,71.01
2022-12-03T06:39:17.694Z,70.97
2022-12-03T06:41:45.877Z,71.07
2022-12-03T06:44:13.869Z,71.13
2022-12-03T06:46:41.402Z,71.10
2022-12-03T06:49:10.255Z,71.40
2022-12-03T06:51:38.235Z,71.52
2022-12-03T06:54:06.340Z,71.45
2022-12-03T06:56:37.793Z,71.43
2022-12-03T06:59:09.408Z,71.51
2022-12-03T07:01:38.058Z,71.77
2022-12-03T07:04:10.328Z,71.66
2022-12-03T07:06:44.979Z,71.70
2022-12-03T07:09:24.084Z,71.60
2022-12-03T07:11:52.021Z,71.74
2022-12-03T07:14:19.611Z,72.12
2022-12-03T07:16:48.013Z,72.09
2022-12-03T07:19:15.731Z,71.98
2022-12-03T07:21:44.688Z,72.07
2022-12-03T07:24:12.313Z,71.89
2022-12-03T07:26:40.324Z,72.07
2022-12-03T07:29:07.924Z,72.15
2022-12-03T07:31:35.571Z,72.21
2022-12-03T07:34:03.212Z,72.23
2022-12-03T07:36:30.728Z,72.54
2022-12-03T07:38:59.609Z,72.35
2022-12-03T07:41:27.078Z,72.53
2022-12-03T07:43:54.649Z,72.65
2022-12-03T07:46:22.288Z,72.65
2022-12-03T07:48:49.951Z,72.43
2022-12-03T07:51:17.509Z,72.63
2022-12-03T07:53:45.071Z,72.57
2022-12-03T07:56:14.009Z,72.71
2022-12-03T07:58:41.583Z,72.99
2022-12-03T08:01:10.298Z,73.10
2022-12-03T08:03:38.504Z,73.26
2022-12-03T08:06:06.439Z,72.94
2022-12-03T08:08:33.952Z,72.74
2022-12-03T08:11:02.649Z,73.25
2022-12-03T08:13:31.674Z,73.11
2022-12-03T08:16:02.510Z,73.16
2022-12-03T08:18:30.079Z,73.17
2022-12-03T08:20:58.151Z,72.99
2022-12-03T08:23:26.734Z,73.61
2022-12-03T08:25:54.715Z,73.40
2022-12-03T08:28:25.773Z,73.41
2022-12-03T08:31:02.395Z,73.22
2022-12-03T08:33:33.692Z,73.54
2022-12-03T08:36:04.689Z,73.48
2022-12-03T08:38:32.306Z,73.37
2022-12-03T08:40:59.829Z,73.44
2022-12-03T08:43:29.336Z,73.51
2022-12-03T08:45:58.621Z,73.77
2022-12-03T08:48:33.517Z,73.66
2022-12-03T08:51:04.601Z,73.86
2022-12-03T08:53:37.743Z,73.55
2022-12-03T08:56:14.058Z,73.58
2022-12-03T08:58:43.196Z,73.64
2022-12-03T09:01:29.225Z,73.65
2022-12-03T09:04:00.527Z,73.65
2022-12-03T09:06:28.040Z,73.82
2022-12-03T09:08:55.518Z,73.79
2022-12-03T09:11:22.933Z,73.65
2022-12-03T09:13:50.580Z,73.75
2022-12-03T09:16:19.884Z,73.89
2022-12-03T09:18:48.071Z,74.17
2022-12-03T09:21:15.570Z,73.84
2022-12-03T09:23:43.022Z,73.82
2022-12-03T09:26:10.625Z,74.16
2022-12-03T09:28:38.188Z,74.25
2022-12-03T09:31:05.895Z,74.00
2022-12-03T09:33:34.905Z,73.98
2022-12-03T09:36:02.441Z,73.95
2022-12-03T09:38:30.003Z,74.04
2022-12-03T09:40:57.896Z,74.12
2022-12-03T09:43:37.910Z,74.15
2022-12-03T09:46:13.337Z,74.24
2022-12-03T09:48:43.465Z,73.95
2022-12-03T09:51:12.582Z,74.07
2022-12-03T09:53:41.675Z,74.27
2022-12-03T09:56:17.115Z,74.29
2022-12-03T09:58:45.238Z,74.44
2022-12-03T10:01:16.321Z,74.20
2022-12-03T10:03:48.980Z,74.16
2022-12-03T10:06:19.816Z,74.43
2022-12-03T10:08:50.161Z,74.60
2022-12-03T10:11:20.116Z,73.58
2022-12-03T10:13:48.872Z,74.11
2022-12-03T10:16:21.139Z,73.90
2022-12-03T10:18:53.388Z,73.97
2022-12-03T10:21:25.188Z,74.28
2022-12-03T10:24:25.918Z,74.28
2022-12-03T10:26:55.992Z,73.87
2022-12-03T10:29:32.957Z,74.00
2022-12-03T10:32:03.604Z,73.86
2022-12-03T10:34:34.367Z,74.51
2022-12-03T10:37:14.951Z,74.16
2022-12-03T10:40:00.318Z,74.46
2022-12-03T10:42:30.048Z,74.10
2022-12-03T10:45:16.455Z,74.31
2022-12-03T10:48:02.628Z,74.27
2022-12-03T10:50:32.679Z,74.06
2022-12-03T10:53:00.657Z,74.02
2022-12-03T10:55:30.077Z,73.63
2022-12-03T10:57:58.911Z,73.89
2022-12-03T11:00:26.844Z,73.85
2022-12-03T11:03:02.043Z,74.08
2022-12-03T11:05:31.405Z,73.92
2022-12-03T11:07:59.301Z,73.88
2022-12-03T11:10:27.256Z,73.94
2022-12-03T11:13:30.892Z,73.92
2022-12-03T11:15:59.230Z,73.72
2022-12-03T11:18:59.667Z,73.73
2022-12-03T11:21:29.279Z,74.11
2022-12-03T11:24:18.462Z,73.66
2022-12-03T11:27:20.878Z,73.77
2022-12-03T11:30:00.415Z,73.94
2022-12-03T11:33:01.807Z,73.84
2022-12-03T11:35:36.956Z,73.86
2022-12-03T11:38:52.646Z,74.04
2022-12-03T11:41:32.114Z,73.92
2022-12-03T11:44:06.285Z,73.87
2022-12-03T11:46:43.199Z,73.92
2022-12-03T11:49:39.203Z,73.85
2022-12-03T11:52:21.982Z,73.90
2022-12-03T11:54:53.196Z,73.74
2022-12-03T11:57:28.645Z,73.60
2022-12-03T12:00:05.571Z,73.81
2022-12-03T12:02:39.678Z,73.93
2022-12-03T12:05:18.900Z,73.91
2022-12-03T12:07:48.103Z,73.56
2022-12-03T12:10:36.012Z,73.65
2022-12-03T12:13:04.907Z,73.76
2022-12-03T12:15:51.039Z,73.73
2022-12-03T12:18:36.446Z,74.00
2022-12-03T12:21:42.246Z,73.81
2022-12-03T12:24:33.135Z,73.97
2022-12-03T12:27:03.463Z,74.27
2022-12-03T12:29:33.592Z,74.18
2022-12-03T12:32:08.306Z,73.79
2022-12-03T12:34:38.802Z,73.87
2022-12-03T12:37:12.810Z,73.85
2022-12-03T12:39:41.092Z,73.59
2022-12-03T12:42:28.921Z,73.93
2022-12-03T12:45:01.570Z,73.71
2022-12-03T12:47:33.106Z,74.23
2022-12-03T12:50:00.908Z,73.77
2022-12-03T12:52:28.999Z,74.08
2022-12-03T12:55:00.223Z,73.92
2022-12-03T12:57:30.967Z,73.91
2022-12-03T13:00:00.153Z,74.25
2022-12-03T13:02:44.473Z,74.00
2022-12-03T13:05:14.389Z,73.97
2022-12-03T13:07:44.657Z,73.98
2022-12-03T13:10:37.934Z,73.99
2022-12-03T13:13:24.269Z,74.14
2022-12-03T13:15:59.670Z,73.94
2022-12-03T13:18:32.572Z,74.06
2022-12-03T13:21:00.730Z,73.95
2022-12-03T13:23:32.177Z,73.90
2022-12-03T13:26:14.130Z,73.73
2022-12-03T13:28:50.722Z,74.06
2022-12-03T13:31:32.138Z,74.02
2022-12-03T13:34:02.637Z,74.00
2022-12-03T13:36:38.138Z,74.13
2022-12-03T13:39:20.076Z,74.22
2022-12-03T13:42:05.684Z,74.36
2022-12-03T13:44:34.508Z,74.30
2022-12-03T13:47:15.245Z,73.87
2022-12-03T13:49:46.096Z,74.10
2022-12-03T13:52:17.358Z,74.11
2022-12-03T13:54:45.183Z,73.92
2022-12-03T13:57:12.914Z,74.15
2022-12-03T13:59:40.780Z,74.10
2022-12-03T14:02:10.357Z,74.10
2022-12-03T14:04:38.103Z,74.10
2022-12-03T14:07:06.017Z,74.16
2022-12-03T14:09:33.815Z,74.17
2022-12-03T14:12:19.129Z,74.18
2022-12-03T14:14:46.785Z,74.33
2022-12-03T14:17:15.930Z,74.28
2022-12-03T14:19:43.548Z,74.00
2022-12-03T14:22:11.682Z,74.43
2022-12-03T14:24:40.843Z,74.23
2022-12-03T14:27:08.417Z,74.42
2022-12-03T14:29:36.021Z,74.44
2022-12-03T14:32:03.653Z,74.34
2022-12-03T14:34:32.802Z,74.26
2022-12-03T14:37:00.519Z,74.36
2022-12-03T14:39:28.125Z,74.27
2022-12-03T14:42:14.722Z,74.23
2022-12-03T14:44:43.305Z,74.42
2022-12-03T14:47:11.367Z,74.48
2022-12-03T14:49:40.444Z,74.15
2022-12-03T14:52:11.995Z,74.14
2022-12-03T14:54:42.492Z,74.29
2022-12-03T14:57:11.935Z,74.45
2022-12-03T14:59:39.838Z,74.40
2022-12-03T15:02:07.964Z,74.58
2022-12-03T15:04:37.541Z,74.43
2022-12-03T15:07:06.923Z,74.45
2022-12-03T15:09:34.631Z,74.54
2022-12-03T15:12:03.536Z,74.39
2022-12-03T15:14:31.350Z,74.40
2022-12-03T15:16:59.368Z,74.49
2022-12-03T15:19:27.227Z,74.48
2022-12-03T15:21:54.970Z,74.51
2022-12-03T15:24:23.961Z,74.73
2022-12-03T15:26:52.308Z,74.72
2022-12-03T15:29:20.367Z,74.78
2022-12-03T15:31:47.921Z,75.06
2022-12-03T15:34:21.865Z,74.62
2022-12-03T15:36:50.127Z,74.53
2022-12-03T15:39:17.587Z,74.74
2022-12-03T15:41:46.355Z,74.78
2022-12-03T15:44:13.817Z,74.67
2022-12-03T15:46:41.454Z,74.93
2022-12-03T15:49:08.948Z,74.90
2022-12-03T15:51:36.397Z,74.89
2022-12-03T15:54:04.031Z,75.03
2022-12-03T15:56:32.551Z,74.97
2022-12-03T15:59:02.343Z,75.17
2022-12-03T16:01:29.825Z,75.17
2022-12-03T16:03:57.342Z,75.11
2022-12-03T16:06:25.928Z,75.07
2022-12-03T16:08:53.378Z,75.06
2022-12-03T16:11:20.832Z,75.09
2022-12-03T16:13:48.292Z,75.19
2022-12-03T16:16:17.151Z,75.22
2022-12-03T16:18:44.667Z,75.14
2022-12-03T16:21:12.188Z,75.18
2022-12-03T16:23:39.728Z,75.35
2022-12-03T16:26:07.175Z,75.31
2022-12-03T16:28:34.740Z,75.41
2022-12-03T16:31:03.017Z,75.48
2022-12-03T16:33:32.410Z,75.24
2022-12-03T16:35:59.888Z,75.39
2022-12-03T16:38:27.354Z,75.44
2022-12-03T16:40:55.546Z,75.41
2022-12-03T16:43:23.056Z,75.33
2022-12-03T16:46:09.930Z,75.42
2022-12-03T16:48:39.032Z,75.43
2022-12-03T16:51:06.779Z,75.42
2022-12-03T16:53:34.697Z,75.50
2022-12-03T16:56:02.424Z,75.52
2022-12-03T16:58:30.242Z,75.55
2022-12-03T17:00:57.727Z,75.58
2022-12-03T17:03:30.397Z,75.32
2022-12-03T17:06:02.445Z,75.71
2022-12-03T17:08:30.405Z,75.61
2022-12-03T17:10:58.109Z,75.59
2022-12-03T17:13:25.654Z,75.57
2022-12-03T17:15:53.150Z,76.05
2022-12-03T17:18:20.857Z,75.04
2022-12-03T17:20:48.421Z,75.89
2022-12-03T17:23:17.627Z,75.57
2022-12-03T17:25:45.093Z,75.77
2022-12-03T17:28:12.593Z,75.57
2022-12-03T17:30:40.103Z,75.58
2022-12-03T17:33:07.616Z,75.74
2022-12-03T17:35:35.104Z,75.46
2022-12-03T17:38:02.832Z,75.75
2022-12-03T17:40:31.574Z,75.63
2022-12-03T17:42:59.080Z,76.03
2022-12-03T17:45:26.768Z,75.79
2022-12-03T17:47:54.234Z,75.65
2022-12-03T17:50:21.734Z,75.80
2022-12-03T17:52:49.250Z,75.62
2022-12-03T17:55:27.691Z,75.62
2022-12-03T17:58:00.178Z,75.55
2022-12-03T18:00:27.611Z,75.48
2022-12-03T18:02:55.233Z,75.64
2022-12-03T18:05:22.986Z,75.55
2022-12-03T18:07:50.791Z,75.73
2022-12-03T18:10:18.462Z,75.61
2022-12-03T18:12:46.057Z,75.73
2022-12-03T18:15:14.956Z,75.66
2022-12-03T18:17:42.543Z,75.67
2022-12-03T18:20:10.463Z,75.59
2022-12-03T18:22:38.059Z,75.54
2022-12-03T18:25:06.538Z,75.51
2022-12-03T18:27:34.575Z,75.53
2022-12-03T18:30:02.175Z,75.54
2022-12-03T18:32:31.004Z,75.47
2022-12-03T18:34:58.641Z,75.50
2022-12-03T18:37:28.399Z,75.82
2022-12-03T18:39:57.592Z,75.57
2022-12-03T18:42:25.761Z,75.86
2022-12-03T18:44:56.558Z,75.63
2022-12-03T18:47:27.360Z,75.48
2022-12-03T18:49:57.012Z,75.73
2022-12-03T18:52:25.338Z,75.61
2022-12-03T18:54:53.181Z,75.72
2022-12-03T18:57:20.728Z,75.85
2022-12-03T18:59:48.238Z,75.86
2022-12-03T19:02:38.969Z,75.86
2022-12-03T19:05:09.038Z,75.72
2022-12-03T19:07:36.900Z,75.84
2022-12-03T19:10:05.084Z,75.91
2022-12-03T19:12:33.447Z,75.98
2022-12-03T19:15:01.159Z,75.96
2022-12-03T19:17:28.738Z,75.98
2022-12-03T19:19:56.632Z,75.97
2022-12-03T19:22:25.818Z,75.94
2022-12-03T19:24:53.589Z,75.94
2022-12-03T19:27:21.038Z,75.91
2022-12-03T19:29:49.566Z,76.10
2022-12-03T19:32:17.319Z,75.93
2022-12-03T19:34:44.934Z,75.99
2022-12-03T19:37:12.464Z,76.00
2022-12-03T19:39:43.101Z,75.99
2022-12-03T19:42:10.931Z,76.07
2022-12-03T19:44:39.097Z,76.09
2022-12-03T19:47:06.595Z,76.08
2022-12-03T19:49:34.236Z,76.31
2022-12-03T19:52:01.822Z,76.03
2022-12-03T19:54:29.304Z,76.02
2022-12-03T19:56:58.290Z,76.18
2022-12-03T19:59:25.866Z,76.25
2022-12-03T20:01:53.525Z,76.18
2022-12-03T20:04:21.334Z,76.26
2022-12-03T20:06:49.037Z,76.32
2022-12-03T20:09:17.749Z,76.04
2022-12-03T20:11:46.424Z,76.37
2022-12-03T20:14:17.323Z,76.34
2022-12-03T20:16:45.628Z,76.27
2022-12-03T20:19:15.786Z,76.49
2022-12-03T20:21:44.546Z,76.19
2022-12-03T20:24:14.952Z,76.34
2022-12-03T20:26:43.247Z,76.63
2022-12-03T20:29:10.815Z,76.01
2022-12-03T20:31:39.709Z,76.39
2022-12-03T20:34:07.406Z,76.63
2022-12-03T20:36:35.057Z,76.51
2022-12-03T20:39:05.207Z,76.48
2022-12-03T20:41:35.926Z,76.43
2022-12-03T20:44:05.995Z,76.53
2022-12-03T20:46:33.679Z,76.71
2022-12-03T20:49:02.597Z,76.64
2022-12-03T20:51:32.017Z,76.64
2022-12-03T20:54:00.301Z,76.43
2022-12-03T20:56:31.157Z,76.98
2022-12-03T20:59:00.871Z,76.61
2022-12-03T21:01:29.074Z,76.63
2022-12-03T21:03:58.107Z,76.79
2022-12-03T21:06:29.976Z,76.58
2022-12-03T21:09:00.635Z,76.52
2022-12-03T21:11:30.696Z,76.69
2022-12-03T21:13:59.298Z,76.62
2022-12-03T21:16:46.050Z,76.58
2022-12-03T21:19:17.838Z,76.77
2022-12-03T21:21:46.922Z,76.70
2022-12-03T21:24:14.923Z,76.67
2022-12-03T21:26:42.572Z,76.61
2022-12-03T21:29:10.208Z,76.50
2022-12-03T21:31:39.861Z,76.86
2022-12-03T21:34:08.582Z,76.59
2022-12-03T21:36:36.311Z,76.51
2022-12-03T21:39:06.129Z,76.58
2022-12-03T21:41:35.096Z,76.60
2022-12-03T21:44:03.266Z,76.53
2022-12-03T21:47:12.620Z,76.86
2022-12-03T21:49:20.248Z,76.68
2022-12-03T21:51:47.760Z,76.73
2022-12-03T21:54:16.702Z,76.39
2022-12-03T21:56:44.300Z,77.03
2022-12-03T21:59:11.834Z,76.65
2022-12-03T22:01:43.993Z,76.64
2022-12-03T22:04:14.378Z,76.62
2022-12-03T22:06:41.813Z,76.71
2022-12-03T22:09:09.343Z,76.59
2022-12-03T22:11:38.139Z,76.46
2022-12-03T22:14:06.916Z,76.85
2022-12-03T22:16:34.848Z,76.72
2022-12-03T22:19:02.392Z,76.66
2022-12-03T22:21:30.174Z,76.36
2022-12-03T22:23:57.686Z,76.88
2022-12-03T22:26:25.285Z,76.52
2022-12-03T22:28:54.085Z,76.77
2022-12-03T22:31:21.569Z,76.57
2022-12-03T22:33:49.718Z,76.68
2022-12-03T22:36:21.580Z,76.59
2022-12-03T22:38:49.968Z,76.69
2022-12-03T22:41:18.163Z,76.56
2022-12-03T22:43:46.672Z,76.55
2022-12-03T22:46:16.155Z,76.49
2022-12-03T22:48:45.457Z,76.71
2022-12-03T22:51:14.919Z,76.53
2022-12-03T22:53:42.442Z,76.49
2022-12-03T22:56:09.943Z,76.73
2022-12-03T22:58:39.054Z,76.73
2022-12-03T23:01:07.208Z,76.74
2022-12-03T23:03:36.851Z,76.48
2022-12-03T23:06:12.769Z,76.59
2022-12-03T23:08:40.467Z,76.42
2022-12-03T23:11:08.501Z,76.82
2022-12-03T23:13:36.207Z,77.05
2022-12-03T23:16:04.253Z,76.58
2022-12-03T23:18:31.754Z,76.65
2022-12-03T23:21:00.663Z,76.73
2022-12-03T23:23:28.974Z,76.87
2022-12-03T23:25:59.693Z,76.76
2022-12-03T23:28:28.397Z,76.76
2022-12-03T23:30:55.942Z,76.59
2022-12-03T23:33:23.841Z,76.64
2022-12-03T23:35:51.609Z,76.66
2022-12-03T23:38:20.696Z,76.66
2022-12-03T23:40:48.615Z,76.68
2022-12-03T23:43:16.580Z,76.91
2022-12-03T23:45:44.113Z,76.65
2022-12-03T23:48:12.615Z,76.43
2022-12-03T23:50:41.227Z,76.49
2022-12-03T23:53:08.954Z,76.19
2022-12-03T23:55:41.407Z,76.77
2022-12-03T23:58:10.177Z,76.61
